sensor_id;sensor_type;location;lat;lon;timestamp;P1;durP1;ratioP1;P2;durP2;ratioP2
39276;SDS011;63149;48.086;-1.606;2023-08-08T05:01:58;3.38;;;1.63;;
39276;SDS011;63149;48.086;-1.606;2023-08-08T05:04:25;6.57;;;2.00;;
39276;SDS011;63149;48.086;-1.606;2023-08-08T05:06:51;4.10;;;1.65;;
39276;SDS011;63149;48.086;-1.606;2023-08-08T05:09:18;2.75;;;2.00;;
39276;SDS011;63149;48.086;-1.606;2023-08-08T05:11:45;6.68;;;2.13;;
39276;SDS011;63149;48.086;-1.606;2023-08-08T05:14:12;3.50;;;1.90;;
39276;SDS011;63149;48.086;-1.606;2023-08-08T05:16:39;2.33;;;1.90;;
39276;SDS011;63149;48.086;-1.606;2023-08-08T05:19:07;3.70;;;1.90;;
39276;SDS011;63149;48.086;-1.606;2023-08-08T05:21:34;6.25;;;2.30;;
39276;SDS011;63149;48.086;-1.606;2023-08-08T05:24:01;7.47;;;1.95;;
39276;SDS011;63149;48.086;-1.606;2023-08-08T05:26:28;6.30;;;1.90;;
39276;SDS011;63149;48.086;-1.606;2023-08-08T05:28:55;3.50;;;1.63;;
39276;SDS011;63149;48.086;-1.606;2023-08-08T05:31:22;6.68;;;1.88;;
39276;SDS011;63149;48.086;-1.606;2023-08-08T05:33:49;6.18;;;1.90;;
39276;SDS011;63149;48.086;-1.606;2023-08-08T05:36:17;5.82;;;2.08;;
39276;SDS011;63149;48.086;-1.606;2023-08-08T05:38:44;5.18;;;1.90;;
39276;SDS011;63149;48.086;-1.606;2023-08-08T05:41:11;5.05;;;2.20;;
39276;SDS011;63149;48.086;-1.606;2023-08-08T05:43:38;8.57;;;2.33;;
39276;SDS011;63149;48.086;-1.606;2023-08-08T05:46:05;5.55;;;1.90;;
39276;SDS011;63149;48.086;-1.606;2023-08-08T05:48:32;6.88;;;2.10;;
39276;SDS011;63149;48.086;-1.606;2023-08-08T05:50:59;9.18;;;2.10;;
39276;SDS011;63149;48.086;-1.606;2023-08-08T05:53:29;4.82;;;2.15;;
39276;SDS011;63149;48.086;-1.606;2023-08-08T05:55:56;6.28;;;2.20;;
39276;SDS011;63149;48.086;-1.606;2023-08-08T05:58:23;8.35;;;2.40;;
39276;SDS011;63149;48.086;-1.606;2023-08-08T06:00:50;5.10;;;2.25;;
39276;SDS011;63149;48.086;-1.606;2023-08-08T06:03:16;8.52;;;2.10;;
39276;SDS011;63149;48.086;-1.606;2023-08-08T06:05:43;6.20;;;2.30;;
39276;SDS011;63149;48.086;-1.606;2023-08-08T06:08:10;6.93;;;2.40;;
39276;SDS011;63149;48.086;-1.606;2023-08-08T06:10:40;4.97;;;2.10;;
39276;SDS011;63149;48.086;-1.606;2023-08-08T06:13:07;3.67;;;2.22;;
39276;SDS011;63149;48.086;-1.606;2023-08-08T06:15:34;6.07;;;2.92;;
39276;SDS011;63149;48.086;-1.606;2023-08-08T06:18:01;9.93;;;2.78;;
39276;SDS011;63149;48.086;-1.606;2023-08-08T06:20:28;4.30;;;2.40;;
39276;SDS011;63149;48.086;-1.606;2023-08-08T06:22:54;11.70;;;3.50;;
39276;SDS011;63149;48.086;-1.606;2023-08-08T06:25:21;9.70;;;2.65;;
39276;SDS011;63149;48.086;-1.606;2023-08-08T06:27:50;7.18;;;2.60;;
39276;SDS011;63149;48.086;-1.606;2023-08-08T06:30:17;7.45;;;3.05;;
39276;SDS011;63149;48.086;-1.606;2023-08-08T06:32:43;5.65;;;2.78;;
39276;SDS011;63149;48.086;-1.606;2023-08-08T06:35:10;8.85;;;3.15;;
39276;SDS011;63149;48.086;-1.606;2023-08-08T06:37:37;8.73;;;3.22;;
39276;SDS011;63149;48.086;-1.606;2023-08-08T06:40:05;6.85;;;2.63;;
39276;SDS011;63149;48.086;-1.606;2023-08-08T06:42:33;10.10;;;3.28;;
39276;SDS011;63149;48.086;-1.606;2023-08-08T06:45:01;8.98;;;3.22;;
39276;SDS011;63149;48.086;-1.606;2023-08-08T06:47:29;9.52;;;3.72;;
39276;SDS011;63149;48.086;-1.606;2023-08-08T06:49:56;8.95;;;3.38;;
39276;SDS011;63149;48.086;-1.606;2023-08-08T06:52:23;11.77;;;3.47;;
39276;SDS011;63149;48.086;-1.606;2023-08-08T06:54:50;8.32;;;3.88;;
39276;SDS011;63149;48.086;-1.606;2023-08-08T06:57:17;9.85;;;4.00;;
39276;SDS011;63149;48.086;-1.606;2023-08-08T06:59:44;6.95;;;3.03;;
39276;SDS011;63149;48.086;-1.606;2023-08-08T07:04:44;10.10;;;3.33;;
39276;SDS011;63149;48.086;-1.606;2023-08-08T07:07:11;9.93;;;3.38;;
39276;SDS011;63149;48.086;-1.606;2023-08-08T07:09:37;7.22;;;2.55;;
39276;SDS011;63149;48.086;-1.606;2023-08-08T07:12:05;5.30;;;2.97;;
39276;SDS011;63149;48.086;-1.606;2023-08-08T07:14:32;4.03;;;2.97;;
39276;SDS011;63149;48.086;-1.606;2023-08-08T07:16:59;11.90;;;3.42;;
39276;SDS011;63149;48.086;-1.606;2023-08-08T07:19:29;13.30;;;3.63;;
39276;SDS011;63149;48.086;-1.606;2023-08-08T07:21:56;9.57;;;3.15;;
39276;SDS011;63149;48.086;-1.606;2023-08-08T07:24:23;14.45;;;3.40;;
39276;SDS011;63149;48.086;-1.606;2023-08-08T07:26:53;10.45;;;3.10;;
39276;SDS011;63149;48.086;-1.606;2023-08-08T07:29:20;6.75;;;2.78;;
39276;SDS011;63149;48.086;-1.606;2023-08-08T07:31:47;9.70;;;2.95;;
39276;SDS011;63149;48.086;-1.606;2023-08-08T07:34:14;5.68;;;2.75;;
39276;SDS011;63149;48.086;-1.606;2023-08-08T07:36:42;6.32;;;2.45;;
39276;SDS011;63149;48.086;-1.606;2023-08-08T07:39:09;5.90;;;2.08;;
39276;SDS011;63149;48.086;-1.606;2023-08-08T07:41:36;8.88;;;2.95;;
39276;SDS011;63149;48.086;-1.606;2023-08-08T07:44:03;9.25;;;2.42;;
39276;SDS011;63149;48.086;-1.606;2023-08-08T07:46:30;4.20;;;2.35;;
39276;SDS011;63149;48.086;-1.606;2023-08-08T07:48:57;10.52;;;2.67;;
39276;SDS011;63149;48.086;-1.606;2023-08-08T07:51:28;8.18;;;2.40;;
39276;SDS011;63149;48.086;-1.606;2023-08-08T07:53:56;6.75;;;2.95;;
39276;SDS011;63149;48.086;-1.606;2023-08-08T07:56:24;6.93;;;2.70;;
39276;SDS011;63149;48.086;-1.606;2023-08-08T07:58:51;7.22;;;2.50;;
39276;SDS011;63149;48.086;-1.606;2023-08-08T08:01:18;6.72;;;2.25;;
39276;SDS011;63149;48.086;-1.606;2023-08-08T08:03:45;7.22;;;2.88;;
39276;SDS011;63149;48.086;-1.606;2023-08-08T08:06:12;6.90;;;2.95;;
39276;SDS011;63149;48.086;-1.606;2023-08-08T08:08:38;6.38;;;2.53;;
39276;SDS011;63149;48.086;-1.606;2023-08-08T08:11:07;8.95;;;3.13;;
39276;SDS011;63149;48.086;-1.606;2023-08-08T08:13:34;6.95;;;2.47;;
39276;SDS011;63149;48.086;-1.606;2023-08-08T08:16:01;5.55;;;2.25;;
39276;SDS011;63149;48.086;-1.606;2023-08-08T08:18:28;4.53;;;2.40;;
39276;SDS011;63149;48.086;-1.606;2023-08-08T08:20:55;4.72;;;2.38;;
39276;SDS011;63149;48.086;-1.606;2023-08-08T08:23:22;9.40;;;2.83;;
39276;SDS011;63149;48.086;-1.606;2023-08-08T08:25:49;7.65;;;2.40;;
39276;SDS011;63149;48.086;-1.606;2023-08-08T08:28:18;6.00;;;2.53;;
39276;SDS011;63149;48.086;-1.606;2023-08-08T08:30:44;7.25;;;2.55;;
39276;SDS011;63149;48.086;-1.606;2023-08-08T08:33:12;4.72;;;2.15;;
39276;SDS011;63149;48.086;-1.606;2023-08-08T08:35:38;4.63;;;2.13;;
39276;SDS011;63149;48.086;-1.606;2023-08-08T08:38:05;3.63;;;2.03;;
39276;SDS011;63149;48.086;-1.606;2023-08-08T08:40:34;6.18;;;2.15;;
39276;SDS011;63149;48.086;-1.606;2023-08-08T08:43:04;9.50;;;2.60;;
39276;SDS011;63149;48.086;-1.606;2023-08-08T08:45:35;6.28;;;2.20;;
39276;SDS011;63149;48.086;-1.606;2023-08-08T08:48:04;6.63;;;2.13;;
39276;SDS011;63149;48.086;-1.606;2023-08-08T08:50:34;6.97;;;1.98;;
39276;SDS011;63149;48.086;-1.606;2023-08-08T08:53:01;5.07;;;2.00;;
39276;SDS011;63149;48.086;-1.606;2023-08-08T08:55:30;7.05;;;2.40;;
39276;SDS011;63149;48.086;-1.606;2023-08-08T08:57:57;4.50;;;2.33;;
39276;SDS011;63149;48.086;-1.606;2023-08-08T09:00:24;4.15;;;2.58;;
39276;SDS011;63149;48.086;-1.606;2023-08-08T09:02:52;6.82;;;2.30;;
39276;SDS011;63149;48.086;-1.606;2023-08-08T09:05:20;7.60;;;2.42;;
39276;SDS011;63149;48.086;-1.606;2023-08-08T09:07:48;4.45;;;2.30;;
39276;SDS011;63149;48.086;-1.606;2023-08-08T09:10:16;5.20;;;2.40;;
39276;SDS011;63149;48.086;-1.606;2023-08-08T09:12:44;8.48;;;1.77;;
39276;SDS011;63149;48.086;-1.606;2023-08-08T09:15:11;10.07;;;2.50;;
39276;SDS011;63149;48.086;-1.606;2023-08-08T09:17:40;6.78;;;2.40;;
39276;SDS011;63149;48.086;-1.606;2023-08-08T09:20:09;7.60;;;2.67;;
39276;SDS011;63149;48.086;-1.606;2023-08-08T09:22:37;5.70;;;1.88;;
39276;SDS011;63149;48.086;-1.606;2023-08-08T09:25:05;3.95;;;2.13;;
39276;SDS011;63149;48.086;-1.606;2023-08-08T09:27:33;4.00;;;1.90;;
39276;SDS011;63149;48.086;-1.606;2023-08-08T09:30:00;3.53;;;2.10;;
39276;SDS011;63149;48.086;-1.606;2023-08-08T09:32:28;5.53;;;2.33;;
39276;SDS011;63149;48.086;-1.606;2023-08-08T09:34:56;4.88;;;1.92;;
39276;SDS011;63149;48.086;-1.606;2023-08-08T09:37:24;5.07;;;2.20;;
39276;SDS011;63149;48.086;-1.606;2023-08-08T09:39:58;6.95;;;2.55;;
39276;SDS011;63149;48.086;-1.606;2023-08-08T09:42:25;6.45;;;2.00;;
39276;SDS011;63149;48.086;-1.606;2023-08-08T09:44:53;5.43;;;1.95;;
39276;SDS011;63149;48.086;-1.606;2023-08-08T09:47:20;6.63;;;1.73;;
39276;SDS011;63149;48.086;-1.606;2023-08-08T09:49:48;8.88;;;1.95;;
39276;SDS011;63149;48.086;-1.606;2023-08-08T09:52:15;3.85;;;1.70;;
39276;SDS011;63149;48.086;-1.606;2023-08-08T09:54:44;4.60;;;1.80;;
39276;SDS011;63149;48.086;-1.606;2023-08-08T09:57:11;5.78;;;2.05;;
39276;SDS011;63149;48.086;-1.606;2023-08-08T09:59:39;3.88;;;1.92;;
39276;SDS011;63149;48.086;-1.606;2023-08-08T10:02:07;5.82;;;1.95;;
39276;SDS011;63149;48.086;-1.606;2023-08-08T10:04:36;5.10;;;1.80;;
39276;SDS011;63149;48.086;-1.606;2023-08-08T10:07:04;4.47;;;1.88;;
39276;SDS011;63149;48.086;-1.606;2023-08-08T10:09:31;3.92;;;1.75;;
39276;SDS011;63149;48.086;-1.606;2023-08-08T10:12:00;2.78;;;1.70;;
39276;SDS011;63149;48.086;-1.606;2023-08-08T10:14:28;7.47;;;2.25;;
39276;SDS011;63149;48.086;-1.606;2023-08-08T10:16:56;5.03;;;2.10;;
39276;SDS011;63149;48.086;-1.606;2023-08-08T10:19:23;4.85;;;2.03;;
39276;SDS011;63149;48.086;-1.606;2023-08-08T10:21:55;2.05;;;1.70;;
39276;SDS011;63149;48.086;-1.606;2023-08-08T10:24:24;3.25;;;1.90;;
39276;SDS011;63149;48.086;-1.606;2023-08-08T10:26:51;3.80;;;1.90;;
39276;SDS011;63149;48.086;-1.606;2023-08-08T10:29:20;4.70;;;1.90;;
39276;SDS011;63149;48.086;-1.606;2023-08-08T10:31:53;8.68;;;1.95;;
39276;SDS011;63149;48.086;-1.606;2023-08-08T10:34:27;7.70;;;2.35;;
39276;SDS011;63149;48.086;-1.606;2023-08-08T10:37:03;2.78;;;1.60;;
39276;SDS011;63149;48.086;-1.606;2023-08-08T10:39:31;3.80;;;1.67;;
39276;SDS011;63149;48.086;-1.606;2023-08-08T10:42:00;3.60;;;2.08;;
39276;SDS011;63149;48.086;-1.606;2023-08-08T10:44:30;4.60;;;1.95;;
39276;SDS011;63149;48.086;-1.606;2023-08-08T10:46:59;3.83;;;1.80;;
39276;SDS011;63149;48.086;-1.606;2023-08-08T10:49:26;4.65;;;1.50;;
39276;SDS011;63149;48.086;-1.606;2023-08-08T10:51:53;4.53;;;1.55;;
39276;SDS011;63149;48.086;-1.606;2023-08-08T10:54:28;4.97;;;1.80;;
39276;SDS011;63149;48.086;-1.606;2023-08-08T10:56:58;3.22;;;1.77;;
39276;SDS011;63149;48.086;-1.606;2023-08-08T10:59:26;2.75;;;1.50;;
39276;SDS011;63149;48.086;-1.606;2023-08-08T11:01:57;3.47;;;1.80;;
39276;SDS011;63149;48.086;-1.606;2023-08-08T11:04:28;7.22;;;2.42;;
39276;SDS011;63149;48.086;-1.606;2023-08-08T11:06:57;4.78;;;2.20;;
39276;SDS011;63149;48.086;-1.606;2023-08-08T11:09:24;2.67;;;1.67;;
39276;SDS011;63149;48.086;-1.606;2023-08-08T11:11:52;4.05;;;1.65;;
39276;SDS011;63149;48.086;-1.606;2023-08-08T11:14:20;4.28;;;1.80;;
39276;SDS011;63149;48.086;-1.606;2023-08-08T11:16:48;2.58;;;1.50;;
39276;SDS011;63149;48.086;-1.606;2023-08-08T11:19:18;5.30;;;2.03;;
39276;SDS011;63149;48.086;-1.606;2023-08-08T11:21:46;3.13;;;1.40;;
39276;SDS011;63149;48.086;-1.606;2023-08-08T11:24:14;4.90;;;1.85;;
39276;SDS011;63149;48.086;-1.606;2023-08-08T11:26:42;4.72;;;1.98;;
39276;SDS011;63149;48.086;-1.606;2023-08-08T11:29:10;4.28;;;1.70;;
39276;SDS011;63149;48.086;-1.606;2023-08-08T11:31:37;4.45;;;1.60;;
39276;SDS011;63149;48.086;-1.606;2023-08-08T11:34:04;2.50;;;1.63;;
39276;SDS011;63149;48.086;-1.606;2023-08-08T11:36:33;2.20;;;1.30;;
39276;SDS011;63149;48.086;-1.606;2023-08-08T11:39:01;3.47;;;1.33;;
39276;SDS011;63149;48.086;-1.606;2023-08-08T11:41:33;3.80;;;1.73;;
39276;SDS011;63149;48.086;-1.606;2023-08-08T11:44:01;2.63;;;1.40;;
39276;SDS011;63149;48.086;-1.606;2023-08-08T11:46:29;4.15;;;1.30;;
39276;SDS011;63149;48.086;-1.606;2023-08-08T11:49:01;1.70;;;1.20;;
39276;SDS011;63149;48.086;-1.606;2023-08-08T11:51:32;2.15;;;1.30;;
39276;SDS011;63149;48.086;-1.606;2023-08-08T11:54:01;2.38;;;1.45;;
39276;SDS011;63149;48.086;-1.606;2023-08-08T11:56:29;2.72;;;1.52;;
39276;SDS011;63149;48.086;-1.606;2023-08-08T11:58:59;3.03;;;1.50;;
39276;SDS011;63149;48.086;-1.606;2023-08-08T12:01:26;3.50;;;1.50;;
39276;SDS011;63149;48.086;-1.606;2023-08-08T12:03:54;3.30;;;1.60;;
39276;SDS011;63149;48.086;-1.606;2023-08-08T12:06:21;5.10;;;1.50;;
39276;SDS011;63149;48.086;-1.606;2023-08-08T12:08:49;3.80;;;1.30;;
39276;SDS011;63149;48.086;-1.606;2023-08-08T12:11:16;4.28;;;1.70;;
39276;SDS011;63149;48.086;-1.606;2023-08-08T12:13:43;5.28;;;1.70;;
39276;SDS011;63149;48.086;-1.606;2023-08-08T12:16:11;4.18;;;1.67;;
39276;SDS011;63149;48.086;-1.606;2023-08-08T12:18:40;3.92;;;1.50;;
39276;SDS011;63149;48.086;-1.606;2023-08-08T12:21:08;3.85;;;1.42;;
39276;SDS011;63149;48.086;-1.606;2023-08-08T12:23:35;1.98;;;1.63;;
39276;SDS011;63149;48.086;-1.606;2023-08-08T12:26:05;2.80;;;1.40;;
39276;SDS011;63149;48.086;-1.606;2023-08-08T12:28:33;3.45;;;1.75;;
39276;SDS011;63149;48.086;-1.606;2023-08-08T12:31:00;3.30;;;1.85;;
39276;SDS011;63149;48.086;-1.606;2023-08-08T12:33:28;3.25;;;1.70;;
39276;SDS011;63149;48.086;-1.606;2023-08-08T12:35:55;1.83;;;1.30;;
39276;SDS011;63149;48.086;-1.606;2023-08-08T12:38:23;3.22;;;1.95;;
39276;SDS011;63149;48.086;-1.606;2023-08-08T12:40:49;3.47;;;1.75;;
39276;SDS011;63149;48.086;-1.606;2023-08-08T12:43:18;4.22;;;1.60;;
39276;SDS011;63149;48.086;-1.606;2023-08-08T12:45:45;3.50;;;2.00;;
39276;SDS011;63149;48.086;-1.606;2023-08-08T12:48:12;3.10;;;1.85;;
39276;SDS011;63149;48.086;-1.606;2023-08-08T12:50:39;4.47;;;1.58;;
39276;SDS011;63149;48.086;-1.606;2023-08-08T12:53:06;3.65;;;2.03;;
39276;SDS011;63149;48.086;-1.606;2023-08-08T12:55:34;3.63;;;1.60;;
39276;SDS011;63149;48.086;-1.606;2023-08-08T12:58:03;4.80;;;1.80;;
39276;SDS011;63149;48.086;-1.606;2023-08-08T13:00:31;5.10;;;1.60;;
39276;SDS011;63149;48.086;-1.606;2023-08-08T13:02:58;3.95;;;1.70;;
39276;SDS011;63149;48.086;-1.606;2023-08-08T13:05:25;4.63;;;1.88;;
39276;SDS011;63149;48.086;-1.606;2023-08-08T13:07:52;4.78;;;1.58;;
39276;SDS011;63149;48.086;-1.606;2023-08-08T13:10:19;2.35;;;1.65;;
39276;SDS011;63149;48.086;-1.606;2023-08-08T13:12:46;5.15;;;2.05;;
39276;SDS011;63149;48.086;-1.606;2023-08-08T13:15:13;4.63;;;1.85;;
39276;SDS011;63149;48.086;-1.606;2023-08-08T13:17:41;4.75;;;2.00;;
39276;SDS011;63149;48.086;-1.606;2023-08-08T13:20:09;4.47;;;1.80;;
39276;SDS011;63149;48.086;-1.606;2023-08-08T13:22:37;2.25;;;1.48;;
39276;SDS011;63149;48.086;-1.606;2023-08-08T13:25:05;6.53;;;1.85;;
39276;SDS011;63149;48.086;-1.606;2023-08-08T13:27:32;5.00;;;1.70;;
39276;SDS011;63149;48.086;-1.606;2023-08-08T13:29:59;6.75;;;1.73;;
39276;SDS011;63149;48.086;-1.606;2023-08-08T13:32:27;4.45;;;2.00;;
39276;SDS011;63149;48.086;-1.606;2023-08-08T13:34:55;3.38;;;1.80;;
39276;SDS011;63149;48.086;-1.606;2023-08-08T13:37:22;4.18;;;1.83;;
39276;SDS011;63149;48.086;-1.606;2023-08-08T13:39:49;6.75;;;2.30;;
39276;SDS011;63149;48.086;-1.606;2023-08-08T13:42:16;4.53;;;1.98;;
39276;SDS011;63149;48.086;-1.606;2023-08-08T13:44:43;2.90;;;1.88;;
39276;SDS011;63149;48.086;-1.606;2023-08-08T13:47:10;3.38;;;2.33;;
39276;SDS011;63149;48.086;-1.606;2023-08-08T13:49:37;6.93;;;2.22;;
39276;SDS011;63149;48.086;-1.606;2023-08-08T13:52:05;4.15;;;1.63;;
39276;SDS011;63149;48.086;-1.606;2023-08-08T13:54:33;4.22;;;1.98;;
39276;SDS011;63149;48.086;-1.606;2023-08-08T13:56:59;3.88;;;1.80;;
39276;SDS011;63149;48.086;-1.606;2023-08-08T13:59:26;3.35;;;1.80;;
39276;SDS011;63149;48.086;-1.606;2023-08-08T14:01:53;4.22;;;1.88;;
39276;SDS011;63149;48.086;-1.606;2023-08-08T14:04:20;4.35;;;1.77;;
39276;SDS011;63149;48.086;-1.606;2023-08-08T14:06:47;5.90;;;2.00;;
39276;SDS011;63149;48.086;-1.606;2023-08-08T14:09:15;3.42;;;2.03;;
39276;SDS011;63149;48.086;-1.606;2023-08-08T14:11:43;3.53;;;1.98;;
39276;SDS011;63149;48.086;-1.606;2023-08-08T14:14:10;4.25;;;1.92;;
39276;SDS011;63149;48.086;-1.606;2023-08-08T14:16:37;9.10;;;2.00;;
39276;SDS011;63149;48.086;-1.606;2023-08-08T14:19:04;4.45;;;1.90;;
39276;SDS011;63149;48.086;-1.606;2023-08-08T14:21:30;3.88;;;1.90;;
39276;SDS011;63149;48.086;-1.606;2023-08-08T14:23:57;3.40;;;1.48;;
39276;SDS011;63149;48.086;-1.606;2023-08-08T14:26:26;4.00;;;2.17;;
39276;SDS011;63149;48.086;-1.606;2023-08-08T14:28:52;2.67;;;1.60;;
39276;SDS011;63149;48.086;-1.606;2023-08-08T14:31:19;4.10;;;2.15;;
39276;SDS011;63149;48.086;-1.606;2023-08-08T14:33:46;3.22;;;1.33;;
39276;SDS011;63149;48.086;-1.606;2023-08-08T14:36:13;5.20;;;1.88;;
39276;SDS011;63149;48.086;-1.606;2023-08-08T14:38:40;2.00;;;1.48;;
39276;SDS011;63149;48.086;-1.606;2023-08-08T14:41:07;5.38;;;1.70;;
39276;SDS011;63149;48.086;-1.606;2023-08-08T14:43:35;4.63;;;1.77;;
39276;SDS011;63149;48.086;-1.606;2023-08-08T14:46:02;3.28;;;1.80;;
39276;SDS011;63149;48.086;-1.606;2023-08-08T14:48:29;2.60;;;1.58;;
39276;SDS011;63149;48.086;-1.606;2023-08-08T14:50:56;7.68;;;1.70;;
39276;SDS011;63149;48.086;-1.606;2023-08-08T14:53:23;3.65;;;1.83;;
39276;SDS011;63149;48.086;-1.606;2023-08-08T14:55:50;2.78;;;1.80;;
39276;SDS011;63149;48.086;-1.606;2023-08-08T14:58:17;3.58;;;1.63;;
39276;SDS011;63149;48.086;-1.606;2023-08-08T15:00:45;1.77;;;1.67;;
39276;SDS011;63149;48.086;-1.606;2023-08-08T15:03:13;6.40;;;1.70;;
39276;SDS011;63149;48.086;-1.606;2023-08-08T15:05:40;3.13;;;1.80;;
39276;SDS011;63149;48.086;-1.606;2023-08-08T15:08:08;3.38;;;1.38;;
39276;SDS011;63149;48.086;-1.606;2023-08-08T15:10:35;2.38;;;1.48;;
39276;SDS011;63149;48.086;-1.606;2023-08-08T15:13:02;2.78;;;1.30;;
39276;SDS011;63149;48.086;-1.606;2023-08-08T15:15:30;4.25;;;1.70;;
39276;SDS011;63149;48.086;-1.606;2023-08-08T15:17:59;3.92;;;1.67;;
39276;SDS011;63149;48.086;-1.606;2023-08-08T15:20:26;2.80;;;1.70;;
39276;SDS011;63149;48.086;-1.606;2023-08-08T15:22:53;4.60;;;1.75;;
39276;SDS011;63149;48.086;-1.606;2023-08-08T15:25:19;3.72;;;1.48;;
39276;SDS011;63149;48.086;-1.606;2023-08-08T15:27:46;6.70;;;1.50;;
39276;SDS011;63149;48.086;-1.606;2023-08-08T15:30:13;5.47;;;1.55;;
39276;SDS011;63149;48.086;-1.606;2023-08-08T15:32:40;3.72;;;1.60;;
39276;SDS011;63149;48.086;-1.606;2023-08-08T15:35:08;4.43;;;1.75;;
39276;SDS011;63149;48.086;-1.606;2023-08-08T15:37:35;4.38;;;1.50;;
39276;SDS011;63149;48.086;-1.606;2023-08-08T15:40:03;4.10;;;1.50;;
39276;SDS011;63149;48.086;-1.606;2023-08-08T15:42:31;2.13;;;1.40;;
39276;SDS011;63149;48.086;-1.606;2023-08-08T15:44:58;1.92;;;1.60;;
39276;SDS011;63149;48.086;-1.606;2023-08-08T15:47:24;2.35;;;1.73;;
39276;SDS011;63149;48.086;-1.606;2023-08-08T15:49:51;4.30;;;2.25;;
39276;SDS011;63149;48.086;-1.606;2023-08-08T15:52:20;1.90;;;1.48;;
39276;SDS011;63149;48.086;-1.606;2023-08-08T15:54:47;4.63;;;1.90;;
39276;SDS011;63149;48.086;-1.606;2023-08-08T15:57:14;3.28;;;1.58;;
39276;SDS011;63149;48.086;-1.606;2023-08-08T15:59:41;2.67;;;1.30;;
39276;SDS011;63149;48.086;-1.606;2023-08-08T16:02:08;1.83;;;1.67;;
39276;SDS011;63149;48.086;-1.606;2023-08-08T16:04:35;2.80;;;1.10;;
39276;SDS011;63149;48.086;-1.606;2023-08-08T16:07:02;5.18;;;1.75;;
39276;SDS011;63149;48.086;-1.606;2023-08-08T16:09:30;5.60;;;1.70;;
39276;SDS011;63149;48.086;-1.606;2023-08-08T16:11:57;2.47;;;1.45;;
39276;SDS011;63149;48.086;-1.606;2023-08-08T16:14:24;2.08;;;1.45;;
39276;SDS011;63149;48.086;-1.606;2023-08-08T16:16:52;2.78;;;1.27;;
39276;SDS011;63149;48.086;-1.606;2023-08-08T16:19:19;2.83;;;1.92;;
39276;SDS011;63149;48.086;-1.606;2023-08-08T16:21:46;2.83;;;1.77;;
39276;SDS011;63149;48.086;-1.606;2023-08-08T16:24:13;3.75;;;1.70;;
39276;SDS011;63149;48.086;-1.606;2023-08-08T16:26:41;2.55;;;1.38;;
39276;SDS011;63149;48.086;-1.606;2023-08-08T16:29:08;2.88;;;1.40;;
39276;SDS011;63149;48.086;-1.606;2023-08-08T16:31:36;2.70;;;1.50;;
39276;SDS011;63149;48.086;-1.606;2023-08-08T16:34:04;2.10;;;1.60;;
39276;SDS011;63149;48.086;-1.606;2023-08-08T16:36:31;2.70;;;1.48;;
39276;SDS011;63149;48.086;-1.606;2023-08-08T16:38:58;2.25;;;1.40;;
39276;SDS011;63149;48.086;-1.606;2023-08-08T16:41:25;4.10;;;1.77;;
39276;SDS011;63149;48.086;-1.606;2023-08-08T16:44:00;3.60;;;1.38;;
39276;SDS011;63149;48.086;-1.606;2023-08-08T16:46:28;2.95;;;1.75;;
39276;SDS011;63149;48.086;-1.606;2023-08-08T16:48:55;2.75;;;1.65;;
39276;SDS011;63149;48.086;-1.606;2023-08-08T16:51:23;2.85;;;1.40;;
39276;SDS011;63149;48.086;-1.606;2023-08-08T16:53:49;3.45;;;1.42;;
39276;SDS011;63149;48.086;-1.606;2023-08-08T16:56:17;3.25;;;1.65;;
39276;SDS011;63149;48.086;-1.606;2023-08-08T16:58:44;2.33;;;1.35;;
39276;SDS011;63149;48.086;-1.606;2023-08-08T17:01:12;2.85;;;1.42;;
39276;SDS011;63149;48.086;-1.606;2023-08-08T17:03:39;2.17;;;1.40;;
39276;SDS011;63149;48.086;-1.606;2023-08-08T17:06:07;2.65;;;1.70;;
39276;SDS011;63149;48.086;-1.606;2023-08-08T17:08:34;4.70;;;1.50;;
39276;SDS011;63149;48.086;-1.606;2023-08-08T17:11:01;3.15;;;1.50;;
39276;SDS011;63149;48.086;-1.606;2023-08-08T17:13:29;2.60;;;1.48;;
39276;SDS011;63149;48.086;-1.606;2023-08-08T17:15:56;4.63;;;2.08;;
39276;SDS011;63149;48.086;-1.606;2023-08-08T17:18:24;2.60;;;1.65;;
39276;SDS011;63149;48.086;-1.606;2023-08-08T17:20:51;5.65;;;1.63;;
39276;SDS011;63149;48.086;-1.606;2023-08-08T17:23:18;2.28;;;1.38;;
39276;SDS011;63149;48.086;-1.606;2023-08-08T17:25:45;3.63;;;1.65;;
39276;SDS011;63149;48.086;-1.606;2023-08-08T17:28:12;3.08;;;1.45;;
39276;SDS011;63149;48.086;-1.606;2023-08-08T17:30:39;2.97;;;1.67;;
39276;SDS011;63149;48.086;-1.606;2023-08-08T17:33:05;3.42;;;1.60;;
39276;SDS011;63149;48.086;-1.606;2023-08-08T17:35:34;1.70;;;1.40;;
39276;SDS011;63149;48.086;-1.606;2023-08-08T17:38:01;1.90;;;1.70;;
39276;SDS011;63149;48.086;-1.606;2023-08-08T17:40:28;4.78;;;1.98;;
39276;SDS011;63149;48.086;-1.606;2023-08-08T17:42:55;6.20;;;1.88;;
39276;SDS011;63149;48.086;-1.606;2023-08-08T17:45:22;3.17;;;1.77;;
39276;SDS011;63149;48.086;-1.606;2023-08-08T17:47:49;2.30;;;1.60;;
39276;SDS011;63149;48.086;-1.606;2023-08-08T17:50:17;2.20;;;1.50;;
39276;SDS011;63149;48.086;-1.606;2023-08-08T17:52:45;2.90;;;1.90;;
39276;SDS011;63149;48.086;-1.606;2023-08-08T17:55:12;2.22;;;1.45;;
39276;SDS011;63149;48.086;-1.606;2023-08-08T17:57:39;3.35;;;1.80;;
39276;SDS011;63149;48.086;-1.606;2023-08-08T18:00:07;3.90;;;1.75;;
39276;SDS011;63149;48.086;-1.606;2023-08-08T18:02:35;4.57;;;1.85;;
39276;SDS011;63149;48.086;-1.606;2023-08-08T18:05:02;2.13;;;1.63;;
39276;SDS011;63149;48.086;-1.606;2023-08-08T18:07:30;3.70;;;2.10;;
39276;SDS011;63149;48.086;-1.606;2023-08-08T18:09:58;4.68;;;2.22;;
39276;SDS011;63149;48.086;-1.606;2023-08-08T18:12:25;3.72;;;2.03;;
39276;SDS011;63149;48.086;-1.606;2023-08-08T18:14:52;2.70;;;2.20;;
39276;SDS011;63149;48.086;-1.606;2023-08-08T18:17:19;3.70;;;2.22;;
39276;SDS011;63149;48.086;-1.606;2023-08-08T18:19:47;3.50;;;1.92;;
39276;SDS011;63149;48.086;-1.606;2023-08-08T18:22:14;5.07;;;2.25;;
39276;SDS011;63149;48.086;-1.606;2023-08-08T18:24:41;2.92;;;1.98;;
39276;SDS011;63149;48.086;-1.606;2023-08-08T18:27:09;3.40;;;1.90;;
39276;SDS011;63149;48.086;-1.606;2023-08-08T18:29:36;4.25;;;2.00;;
39276;SDS011;63149;48.086;-1.606;2023-08-08T18:32:03;6.43;;;2.47;;
39276;SDS011;63149;48.086;-1.606;2023-08-08T18:34:30;5.00;;;1.80;;
39276;SDS011;63149;48.086;-1.606;2023-08-08T18:36:57;4.90;;;2.08;;
39276;SDS011;63149;48.086;-1.606;2023-08-08T18:39:24;2.55;;;1.65;;
39276;SDS011;63149;48.086;-1.606;2023-08-08T18:41:51;3.95;;;2.03;;
39276;SDS011;63149;48.086;-1.606;2023-08-08T18:44:19;3.40;;;1.77;;
39276;SDS011;63149;48.086;-1.606;2023-08-08T18:46:47;5.13;;;2.15;;
39276;SDS011;63149;48.086;-1.606;2023-08-08T18:49:14;6.70;;;2.30;;
39276;SDS011;63149;48.086;-1.606;2023-08-08T18:51:41;4.05;;;1.92;;
39276;SDS011;63149;48.086;-1.606;2023-08-08T18:54:08;6.32;;;2.17;;
39276;SDS011;63149;48.086;-1.606;2023-08-08T18:56:35;5.35;;;2.20;;
39276;SDS011;63149;48.086;-1.606;2023-08-08T18:59:03;3.45;;;1.98;;
39276;SDS011;63149;48.086;-1.606;2023-08-08T19:01:32;5.20;;;2.67;;
39276;SDS011;63149;48.086;-1.606;2023-08-08T19:03:59;9.73;;;5.97;;
39276;SDS011;63149;48.086;-1.606;2023-08-08T19:06:26;8.20;;;5.18;;
39276;SDS011;63149;48.086;-1.606;2023-08-08T19:08:53;12.27;;;6.93;;
39276;SDS011;63149;48.086;-1.606;2023-08-08T19:11:21;10.93;;;6.00;;
39276;SDS011;63149;48.086;-1.606;2023-08-08T19:13:48;5.68;;;3.35;;
39276;SDS011;63149;48.086;-1.606;2023-08-08T19:16:15;5.70;;;2.25;;
39276;SDS011;63149;48.086;-1.606;2023-08-08T19:18:43;4.30;;;1.92;;
39276;SDS011;63149;48.086;-1.606;2023-08-08T19:21:10;2.53;;;1.83;;
39276;SDS011;63149;48.086;-1.606;2023-08-08T19:23:38;4.28;;;1.52;;
39276;SDS011;63149;48.086;-1.606;2023-08-08T19:26:06;2.85;;;1.70;;
39276;SDS011;63149;48.086;-1.606;2023-08-08T19:28:33;2.40;;;1.90;;
39276;SDS011;63149;48.086;-1.606;2023-08-08T19:31:00;6.72;;;1.98;;
39276;SDS011;63149;48.086;-1.606;2023-08-08T19:33:27;3.28;;;1.70;;
39276;SDS011;63149;48.086;-1.606;2023-08-08T19:35:56;3.53;;;1.73;;
39276;SDS011;63149;48.086;-1.606;2023-08-08T19:38:25;2.47;;;1.67;;